sensor_id;sensor_type;location;lat;lon;timestamp;P1;durP1;ratioP1;P2;durP2;ratioP2
12373;SDS011;6251;51.762;8.660;2023-10-31T00:07:53;2.28;;;2.17;;
12373;SDS011;6251;51.762;8.660;2023-10-31T02:09:47;3.08;;;2.87;;
12373;SDS011;6251;51.762;8.660;2023-10-31T03:51:21;4.90;;;4.43;;
12373;SDS011;6251;51.762;8.660;2023-10-31T05:02:24;6.43;;;5.93;;
12373;SDS011;6251;51.762;8.660;2023-10-31T05:12:25;6.68;;;6.03;;
12373;SDS011;6251;51.762;8.660;2023-10-31T05:22:25;6.90;;;6.15;;
12373;SDS011;6251;51.762;8.660;2023-10-31T05:32:26;6.40;;;5.80;;
12373;SDS011;6251;51.762;8.660;2023-10-31T05:42:26;6.35;;;5.75;;
12373;SDS011;6251;51.762;8.660;2023-10-31T05:52:28;7.78;;;6.47;;
12373;SDS011;6251;51.762;8.660;2023-10-31T06:02:29;7.40;;;6.70;;
12373;SDS011;6251;51.762;8.660;2023-10-31T06:12:30;8.93;;;6.75;;
12373;SDS011;6251;51.762;8.660;2023-10-31T06:22:30;6.82;;;6.22;;
12373;SDS011;6251;51.762;8.660;2023-10-31T06:32:31;6.85;;;6.25;;
12373;SDS011;6251;51.762;8.660;2023-10-31T06:42:32;7.37;;;6.72;;
12373;SDS011;6251;51.762;8.660;2023-10-31T06:52:32;5.80;;;5.30;;
12373;SDS011;6251;51.762;8.660;2023-10-31T07:02:33;7.22;;;6.07;;
12373;SDS011;6251;51.762;8.660;2023-10-31T07:12:33;6.93;;;6.30;;
12373;SDS011;6251;51.762;8.660;2023-10-31T07:22:34;7.03;;;6.32;;
12373;SDS011;6251;51.762;8.660;2023-10-31T07:32:36;8.52;;;7.62;;
12373;SDS011;6251;51.762;8.660;2023-10-31T07:42:36;10.15;;;8.95;;
12373;SDS011;6251;51.762;8.660;2023-10-31T07:52:37;11.90;;;9.32;;
12373;SDS011;6251;51.762;8.660;2023-10-31T08:02:38;12.23;;;9.77;;
12373;SDS011;6251;51.762;8.660;2023-10-31T08:12:38;12.73;;;9.93;;
12373;SDS011;6251;51.762;8.660;2023-10-31T08:22:39;11.65;;;8.18;;
12373;SDS011;6251;51.762;8.660;2023-10-31T08:32:42;9.75;;;7.80;;
12373;SDS011;6251;51.762;8.660;2023-10-31T08:42:43;7.43;;;6.45;;
12373;SDS011;6251;51.762;8.660;2023-10-31T08:52:44;6.32;;;5.45;;
12373;SDS011;6251;51.762;8.660;2023-10-31T09:02:44;8.60;;;6.53;;
12373;SDS011;6251;51.762;8.660;2023-10-31T09:12:45;10.00;;;8.13;;
12373;SDS011;6251;51.762;8.660;2023-10-31T09:22:46;13.93;;;11.35;;
12373;SDS011;6251;51.762;8.660;2023-10-31T09:32:47;12.47;;;10.77;;
12373;SDS011;6251;51.762;8.660;2023-10-31T09:42:47;13.82;;;11.77;;
12373;SDS011;6251;51.762;8.660;2023-10-31T09:52:51;13.00;;;11.60;;
12373;SDS011;6251;51.762;8.660;2023-10-31T10:02:54;12.80;;;11.50;;
12373;SDS011;6251;51.762;8.660;2023-10-31T10:12:55;12.15;;;10.95;;
12373;SDS011;6251;51.762;8.660;2023-10-31T10:22:56;9.45;;;8.55;;
12373;SDS011;6251;51.762;8.660;2023-10-31T10:33:03;7.97;;;7.28;;
12373;SDS011;6251;51.762;8.660;2023-10-31T10:43:04;6.85;;;6.35;;
12373;SDS011;6251;51.762;8.660;2023-10-31T10:53:24;7.82;;;7.03;;
12373;SDS011;6251;51.762;8.660;2023-10-31T11:03:27;7.65;;;6.87;;
12373;SDS011;6251;51.762;8.660;2023-10-31T11:13:29;6.37;;;5.85;;
12373;SDS011;6251;51.762;8.660;2023-10-31T11:23:30;6.05;;;5.55;;
12373;SDS011;6251;51.762;8.660;2023-10-31T11:33:31;6.57;;;6.05;;
12373;SDS011;6251;51.762;8.660;2023-10-31T11:53:41;5.60;;;5.10;;
12373;SDS011;6251;51.762;8.660;2023-10-31T12:03:43;5.80;;;5.30;;
12373;SDS011;6251;51.762;8.660;2023-10-31T12:13:58;7.93;;;5.50;;
12373;SDS011;6251;51.762;8.660;2023-10-31T12:24:07;6.30;;;5.60;;
12373;SDS011;6251;51.762;8.660;2023-10-31T12:34:12;6.30;;;5.60;;
12373;SDS011;6251;51.762;8.660;2023-10-31T12:44:15;5.85;;;5.35;;
12373;SDS011;6251;51.762;8.660;2023-10-31T12:54:33;5.97;;;5.37;;
12373;SDS011;6251;51.762;8.660;2023-10-31T13:04:35;6.00;;;5.18;;
12373;SDS011;6251;51.762;8.660;2023-10-31T13:14:35;5.70;;;5.20;;
12373;SDS011;6251;51.762;8.660;2023-10-31T13:24:38;9.68;;;6.45;;
12373;SDS011;6251;51.762;8.660;2023-10-31T13:34:42;9.52;;;6.47;;
12373;SDS011;6251;51.762;8.660;2023-10-31T13:44:43;7.97;;;6.85;;
12373;SDS011;6251;51.762;8.660;2023-10-31T13:54:44;6.70;;;6.00;;
12373;SDS011;6251;51.762;8.660;2023-10-31T14:04:45;6.07;;;5.07;;
12373;SDS011;6251;51.762;8.660;2023-10-31T14:14:45;10.88;;;5.32;;
12373;SDS011;6251;51.762;8.660;2023-10-31T14:24:49;6.50;;;5.80;;
12373;SDS011;6251;51.762;8.660;2023-10-31T14:34:49;7.03;;;5.70;;
12373;SDS011;6251;51.762;8.660;2023-10-31T14:44:50;7.87;;;4.80;;
12373;SDS011;6251;51.762;8.660;2023-10-31T14:54:52;7.45;;;5.15;;
12373;SDS011;6251;51.762;8.660;2023-10-31T15:04:53;5.32;;;4.62;;
12373;SDS011;6251;51.762;8.660;2023-10-31T15:14:53;7.95;;;4.30;;
12373;SDS011;6251;51.762;8.660;2023-10-31T15:24:55;8.95;;;3.97;;
12373;SDS011;6251;51.762;8.660;2023-10-31T15:34:55;6.30;;;3.70;;
12373;SDS011;6251;51.762;8.660;2023-10-31T15:44:56;4.45;;;3.62;;
12373;SDS011;6251;51.762;8.660;2023-10-31T15:54:59;4.28;;;2.75;;
12373;SDS011;6251;51.762;8.660;2023-10-31T16:05:00;5.82;;;3.05;;
12373;SDS011;6251;51.762;8.660;2023-10-31T16:15:00;4.35;;;3.60;;
12373;SDS011;6251;51.762;8.660;2023-10-31T16:25:02;4.75;;;3.72;;
12373;SDS011;6251;51.762;8.660;2023-10-31T16:35:03;3.65;;;3.40;;
12373;SDS011;6251;51.762;8.660;2023-10-31T16:45:04;4.40;;;3.80;;
12373;SDS011;6251;51.762;8.660;2023-10-31T16:55:05;4.32;;;3.70;;
12373;SDS011;6251;51.762;8.660;2023-10-31T17:05:06;5.45;;;3.70;;
12373;SDS011;6251;51.762;8.660;2023-10-31T17:15:07;4.90;;;4.20;;
12373;SDS011;6251;51.762;8.660;2023-10-31T17:25:08;6.78;;;4.60;;
12373;SDS011;6251;51.762;8.660;2023-10-31T17:35:09;5.97;;;5.32;;
12373;SDS011;6251;51.762;8.660;2023-10-31T17:45:09;5.07;;;4.62;;
12373;SDS011;6251;51.762;8.660;2023-10-31T17:55:11;5.75;;;5.25;;
12373;SDS011;6251;51.762;8.660;2023-10-31T18:05:12;8.45;;;7.65;;
12373;SDS011;6251;51.762;8.660;2023-10-31T18:15:13;10.68;;;9.65;;
12373;SDS011;6251;51.762;8.660;2023-10-31T18:25:14;10.05;;;9.18;;
12373;SDS011;6251;51.762;8.660;2023-10-31T18:35:15;12.05;;;10.63;;
12373;SDS011;6251;51.762;8.660;2023-10-31T18:45:15;14.40;;;11.38;;
12373;SDS011;6251;51.762;8.660;2023-10-31T18:55:17;14.07;;;12.68;;
12373;SDS011;6251;51.762;8.660;2023-10-31T19:05:18;15.57;;;13.98;;
12373;SDS011;6251;51.762;8.660;2023-10-31T19:15:19;13.98;;;11.95;;
12373;SDS011;6251;51.762;8.660;2023-10-31T19:25:20;13.85;;;11.27;;
12373;SDS011;6251;51.762;8.660;2023-10-31T19:35:23;9.02;;;8.23;;
12373;SDS011;6251;51.762;8.660;2023-10-31T19:45:23;9.00;;;7.32;;
12373;SDS011;6251;51.762;8.660;2023-10-31T19:55:24;9.25;;;6.80;;
12373;SDS011;6251;51.762;8.660;2023-10-31T20:05:25;5.65;;;4.90;;
12373;SDS011;6251;51.762;8.660;2023-10-31T20:15:26;6.07;;;4.82;;
12373;SDS011;6251;51.762;8.660;2023-10-31T20:25:26;4.75;;;4.37;;
12373;SDS011;6251;51.762;8.660;2023-10-31T20:35:27;5.22;;;4.55;;
12373;SDS011;6251;51.762;8.660;2023-10-31T20:45:27;6.72;;;5.70;;
12373;SDS011;6251;51.762;8.660;2023-10-31T20:55:28;5.07;;;4.68;;
12373;SDS011;6251;51.762;8.660;2023-10-31T21:05:38;5.80;;;5.20;;
12373;SDS011;6251;51.762;8.660;2023-10-31T21:15:38;6.18;;;4.87;;
12373;SDS011;6251;51.762;8.660;2023-10-31T21:25:39;6.45;;;4.90;;
12373;SDS011;6251;51.762;8.660;2023-10-31T21:35:40;5.78;;;5.30;;
12373;SDS011;6251;51.762;8.660;2023-10-31T21:45:41;6.50;;;5.95;;
12373;SDS011;6251;51.762;8.660;2023-10-31T21:55:42;6.40;;;5.90;;
